Airfield :
LOGIN :

Register | Disclaimer

   EN    FR    IT 

 










Legend :    VFR   Marginal VFR   IFR   Intensive IFR   Very Intensive IFR
Visi :
Ceiling :
>= 8 km
>= 3000ft
5 to 8 km
1000 to 3000 ft
1500m to 5 km
500 to 1000 ft
800 to 1500m
200 to 500 ft
< 800m
< 200 ft
Symbols :   Thunderstorms  Fog  Heavy snow  Heavy precipitations  Wind > 20 kt
SIGMETs :     Misc.  Thunderstorms  Icing  Turbulence  Mountain Waves  Volcanic Ashes






- Airport Elevation : 586 ft
- IATA code : IEV


UKKK - Zhuliany

CURRENT METAR :
  • 281600Z 16002MPS 120V200 0400 0350E R08/0550N FZFG VV001 M01/M01 Q1009 R08/190058 BECMG 0300 FZFG

EXPIRED METARs :
  • 281551Z 16002MPS 120V220 0400 0350E R08/0500N FZFG VV001 M01/M01 Q1009 R08/190058 BECMG 0300 FZFG
  • 281530Z 14003MPS 120V180 0550 0400E R08/0600N FZFG VV001 M01/M01 Q1009 R08/190058 BECMG 0300 FZFG
  • 281503Z 16002MPS 120V190 0700 0500E R08/0750N FZFG OVC001 M01/M01 Q1009 R08/190058 BECMG 0300 FZFG
  • 281435Z 14003MPS 100V190 0650 0450E R08/0750D FZFG OVC001 M00/M00 Q1009 R08/190058 NOSIG
  • 281422Z 15002MPS 110V190 0700 0450E R08/0900D FZFG OVC001 M00/M00 Q1009 R08/190058 TEMPO 0600 FG
  • 281411Z 14002MPS 110V180 0700 0550E R08/1700N PRFG OVC001 00/00 Q1009 R08/190058 TEMPO 0600 FG
  • 281400Z 15002MPS 110V180 1000 0700E R08/1700D PRFG OVC001 00/00 Q1009 R08/190058 TEMPO 0600 FG

TAF AMD TAF UKKK
Valid from the 28 at 14:00 until the 29 at 12:00 UTC


281431Z 2814/2912 16003G08MPS 0300 FZFG VV001 TX02/2910Z TNM00/2814Z
TEMPO 2814/2906 1300 BR OVC002
PROB40
TEMPO 2814/2818 -FZDZ OVC003
BECMG 2906/2908 17006G12MPS 3000 BR BKN007
TEMPO 2908/2912 1000 SHRASN BR BKN003 BKN010CB



MET'MAP, your aeronautical weather chart ! - Copyright ORBIFLY December 2007 - Disclaimer

ORBIFLY MET'MAP TEAM :

Programming & Development : Alexandra Zaïnal
Concept & original design : Baudouin d'Aumeries
Assistance for programming : Marc-Olivier Méhu
Technical & hardware support : Manuel Goepfert

Contact : metmap@orbifly.com




SOURCES & CREDITS :

   NOAA